sensor_id;sensor_type;location;lat;lon;timestamp;P1;durP1;ratioP1;P2;durP2;ratioP2
74177;SDS011;62540;48.456;-4.456;2024-01-16T00:00:06;7.25;;;7.00;;
74177;SDS011;62540;48.456;-4.456;2024-01-16T00:02:33;9.25;;;7.25;;
74177;SDS011;62540;48.456;-4.456;2024-01-16T00:04:58;10.50;;;9.00;;
74177;SDS011;62540;48.456;-4.456;2024-01-16T00:07:24;11.75;;;10.00;;
74177;SDS011;62540;48.456;-4.456;2024-01-16T00:09:49;6.00;;;6.00;;
74177;SDS011;62540;48.456;-4.456;2024-01-16T00:12:17;7.00;;;5.25;;
74177;SDS011;62540;48.456;-4.456;2024-01-16T00:14:43;4.75;;;4.75;;
74177;SDS011;62540;48.456;-4.456;2024-01-16T00:17:08;4.75;;;4.00;;
74177;SDS011;62540;48.456;-4.456;2024-01-16T00:19:34;8.00;;;5.75;;
74177;SDS011;62540;48.456;-4.456;2024-01-16T00:22:00;14.75;;;11.75;;
74177;SDS011;62540;48.456;-4.456;2024-01-16T00:24:27;16.00;;;11.50;;
74177;SDS011;62540;48.456;-4.456;2024-01-16T00:26:53;12.75;;;10.75;;
74177;SDS011;62540;48.456;-4.456;2024-01-16T00:29:18;8.50;;;8.50;;
74177;SDS011;62540;48.456;-4.456;2024-01-16T00:31:43;13.00;;;10.00;;
74177;SDS011;62540;48.456;-4.456;2024-01-16T00:34:09;10.50;;;8.75;;
74177;SDS011;62540;48.456;-4.456;2024-01-16T00:36:34;8.75;;;8.75;;
74177;SDS011;62540;48.456;-4.456;2024-01-16T00:39:00;10.25;;;9.75;;
74177;SDS011;62540;48.456;-4.456;2024-01-16T00:41:25;10.00;;;8.00;;
74177;SDS011;62540;48.456;-4.456;2024-01-16T00:43:50;10.25;;;9.00;;
74177;SDS011;62540;48.456;-4.456;2024-01-16T00:46:16;5.00;;;4.00;;
74177;SDS011;62540;48.456;-4.456;2024-01-16T00:48:41;9.50;;;8.25;;
74177;SDS011;62540;48.456;-4.456;2024-01-16T00:51:07;17.75;;;13.00;;
74177;SDS011;62540;48.456;-4.456;2024-01-16T00:53:32;13.75;;;11.50;;
74177;SDS011;62540;48.456;-4.456;2024-01-16T00:55:57;16.75;;;13.00;;
74177;SDS011;62540;48.456;-4.456;2024-01-16T00:58:23;13.50;;;13.50;;
74177;SDS011;62540;48.456;-4.456;2024-01-16T01:00:49;20.75;;;14.25;;
74177;SDS011;62540;48.456;-4.456;2024-01-16T01:03:14;19.00;;;16.00;;
74177;SDS011;62540;48.456;-4.456;2024-01-16T01:05:40;19.50;;;14.50;;
74177;SDS011;62540;48.456;-4.456;2024-01-16T01:08:05;24.25;;;16.00;;
74177;SDS011;62540;48.456;-4.456;2024-01-16T01:10:31;17.25;;;14.25;;
74177;SDS011;62540;48.456;-4.456;2024-01-16T01:12:57;15.00;;;13.25;;
74177;SDS011;62540;48.456;-4.456;2024-01-16T01:15:22;15.75;;;11.50;;
74177;SDS011;62540;48.456;-4.456;2024-01-16T01:17:48;17.50;;;13.00;;
74177;SDS011;62540;48.456;-4.456;2024-01-16T01:20:14;15.75;;;9.50;;
74177;SDS011;62540;48.456;-4.456;2024-01-16T01:22:40;9.00;;;8.00;;
74177;SDS011;62540;48.456;-4.456;2024-01-16T01:25:06;7.00;;;6.50;;
74177;SDS011;62540;48.456;-4.456;2024-01-16T01:27:32;5.25;;;5.25;;
74177;SDS011;62540;48.456;-4.456;2024-01-16T01:29:57;6.00;;;5.25;;
74177;SDS011;62540;48.456;-4.456;2024-01-16T01:32:23;5.00;;;5.00;;
74177;SDS011;62540;48.456;-4.456;2024-01-16T01:34:48;3.25;;;3.25;;
74177;SDS011;62540;48.456;-4.456;2024-01-16T01:37:14;5.25;;;4.75;;
74177;SDS011;62540;48.456;-4.456;2024-01-16T01:39:39;3.00;;;3.00;;
74177;SDS011;62540;48.456;-4.456;2024-01-16T01:42:05;4.00;;;3.00;;
74177;SDS011;62540;48.456;-4.456;2024-01-16T01:44:30;3.00;;;2.00;;
74177;SDS011;62540;48.456;-4.456;2024-01-16T01:46:56;3.00;;;2.00;;
74177;SDS011;62540;48.456;-4.456;2024-01-16T01:49:22;2.50;;;2.50;;
74177;SDS011;62540;48.456;-4.456;2024-01-16T01:51:49;4.75;;;3.00;;
74177;SDS011;62540;48.456;-4.456;2024-01-16T01:54:15;4.00;;;4.00;;
74177;SDS011;62540;48.456;-4.456;2024-01-16T01:56:46;8.00;;;7.00;;
74177;SDS011;62540;48.456;-4.456;2024-01-16T01:59:13;9.00;;;8.00;;
74177;SDS011;62540;48.456;-4.456;2024-01-16T02:01:40;11.25;;;8.00;;
74177;SDS011;62540;48.456;-4.456;2024-01-16T02:04:06;9.00;;;7.75;;
74177;SDS011;62540;48.456;-4.456;2024-01-16T02:06:33;8.50;;;7.75;;
74177;SDS011;62540;48.456;-4.456;2024-01-16T02:08:59;9.00;;;6.00;;
74177;SDS011;62540;48.456;-4.456;2024-01-16T02:11:24;3.00;;;3.00;;
74177;SDS011;62540;48.456;-4.456;2024-01-16T02:13:50;3.00;;;3.00;;
74177;SDS011;62540;48.456;-4.456;2024-01-16T02:16:22;8.25;;;6.00;;
74177;SDS011;62540;48.456;-4.456;2024-01-16T02:18:49;8.50;;;7.00;;
74177;SDS011;62540;48.456;-4.456;2024-01-16T02:21:16;6.00;;;4.00;;
74177;SDS011;62540;48.456;-4.456;2024-01-16T02:23:46;3.00;;;3.00;;
74177;SDS011;62540;48.456;-4.456;2024-01-16T02:26:12;3.00;;;3.00;;
74177;SDS011;62540;48.456;-4.456;2024-01-16T02:28:39;4.25;;;2.25;;
74177;SDS011;62540;48.456;-4.456;2024-01-16T02:31:04;1.75;;;1.75;;
74177;SDS011;62540;48.456;-4.456;2024-01-16T02:33:30;3.00;;;3.00;;
74177;SDS011;62540;48.456;-4.456;2024-01-16T02:35:55;6.00;;;3.00;;
74177;SDS011;62540;48.456;-4.456;2024-01-16T02:38:20;4.50;;;4.00;;
74177;SDS011;62540;48.456;-4.456;2024-01-16T02:40:46;7.00;;;4.50;;
74177;SDS011;62540;48.456;-4.456;2024-01-16T02:43:11;4.00;;;4.00;;
74177;SDS011;62540;48.456;-4.456;2024-01-16T02:45:36;4.50;;;3.25;;
74177;SDS011;62540;48.456;-4.456;2024-01-16T02:48:02;4.00;;;3.00;;
74177;SDS011;62540;48.456;-4.456;2024-01-16T02:50:28;6.00;;;4.00;;
74177;SDS011;62540;48.456;-4.456;2024-01-16T02:52:53;4.00;;;4.00;;
74177;SDS011;62540;48.456;-4.456;2024-01-16T02:55:19;7.00;;;6.00;;
74177;SDS011;62540;48.456;-4.456;2024-01-16T02:57:44;5.50;;;4.00;;
74177;SDS011;62540;48.456;-4.456;2024-01-16T03:00:10;4.00;;;3.00;;
74177;SDS011;62540;48.456;-4.456;2024-01-16T03:02:36;4.50;;;3.00;;
74177;SDS011;62540;48.456;-4.456;2024-01-16T03:05:04;2.00;;;2.00;;
74177;SDS011;62540;48.456;-4.456;2024-01-16T03:07:34;2.50;;;2.00;;
74177;SDS011;62540;48.456;-4.456;2024-01-16T03:09:59;1.75;;;1.75;;
74177;SDS011;62540;48.456;-4.456;2024-01-16T03:12:25;1.00;;;1.00;;
74177;SDS011;62540;48.456;-4.456;2024-01-16T03:14:50;2.00;;;1.00;;
74177;SDS011;62540;48.456;-4.456;2024-01-16T03:17:15;3.75;;;3.75;;
74177;SDS011;62540;48.456;-4.456;2024-01-16T03:19:41;5.75;;;5.00;;
74177;SDS011;62540;48.456;-4.456;2024-01-16T03:22:08;10.75;;;7.75;;
74177;SDS011;62540;48.456;-4.456;2024-01-16T03:24:34;8.00;;;7.25;;
74177;SDS011;62540;48.456;-4.456;2024-01-16T03:26:59;7.25;;;7.00;;
74177;SDS011;62540;48.456;-4.456;2024-01-16T03:29:25;10.75;;;9.25;;
74177;SDS011;62540;48.456;-4.456;2024-01-16T03:31:50;12.75;;;11.75;;
74177;SDS011;62540;48.456;-4.456;2024-01-16T03:34:15;13.50;;;12.00;;
74177;SDS011;62540;48.456;-4.456;2024-01-16T03:36:41;13.50;;;11.50;;
74177;SDS011;62540;48.456;-4.456;2024-01-16T03:39:06;9.75;;;8.00;;
74177;SDS011;62540;48.456;-4.456;2024-01-16T03:41:31;8.75;;;8.00;;
74177;SDS011;62540;48.456;-4.456;2024-01-16T03:43:57;7.00;;;7.00;;
74177;SDS011;62540;48.456;-4.456;2024-01-16T03:46:22;7.25;;;7.25;;
74177;SDS011;62540;48.456;-4.456;2024-01-16T03:48:48;7.00;;;7.00;;
74177;SDS011;62540;48.456;-4.456;2024-01-16T03:51:13;7.50;;;7.00;;
74177;SDS011;62540;48.456;-4.456;2024-01-16T03:53:44;8.75;;;8.25;;
74177;SDS011;62540;48.456;-4.456;2024-01-16T03:56:10;7.00;;;6.00;;
74177;SDS011;62540;48.456;-4.456;2024-01-16T03:58:35;3.00;;;3.00;;
74177;SDS011;62540;48.456;-4.456;2024-01-16T04:01:00;3.75;;;3.25;;
74177;SDS011;62540;48.456;-4.456;2024-01-16T04:03:26;3.00;;;2.00;;
74177;SDS011;62540;48.456;-4.456;2024-01-16T04:05:51;2.00;;;1.00;;
74177;SDS011;62540;48.456;-4.456;2024-01-16T04:08:17;2.00;;;1.00;;
74177;SDS011;62540;48.456;-4.456;2024-01-16T04:10:42;2.00;;;1.00;;
74177;SDS011;62540;48.456;-4.456;2024-01-16T04:13:07;2.00;;;1.00;;
74177;SDS011;62540;48.456;-4.456;2024-01-16T04:15:33;2.00;;;2.00;;
74177;SDS011;62540;48.456;-4.456;2024-01-16T04:17:59;3.00;;;1.25;;
74177;SDS011;62540;48.456;-4.456;2024-01-16T04:20:25;1.00;;;1.00;;
74177;SDS011;62540;48.456;-4.456;2024-01-16T04:22:50;0.50;;;0.50;;
74177;SDS011;62540;48.456;-4.456;2024-01-16T04:25:16;2.00;;;0.00;;
74177;SDS011;62540;48.456;-4.456;2024-01-16T04:27:41;12.00;;;9.75;;
74177;SDS011;62540;48.456;-4.456;2024-01-16T04:30:07;16.50;;;11.25;;
74177;SDS011;62540;48.456;-4.456;2024-01-16T04:32:33;13.75;;;12.75;;
74177;SDS011;62540;48.456;-4.456;2024-01-16T04:34:58;19.00;;;14.50;;
74177;SDS011;62540;48.456;-4.456;2024-01-16T04:37:24;11.75;;;11.25;;
74177;SDS011;62540;48.456;-4.456;2024-01-16T04:39:49;9.75;;;6.00;;
74177;SDS011;62540;48.456;-4.456;2024-01-16T04:42:14;3.00;;;3.00;;
74177;SDS011;62540;48.456;-4.456;2024-01-16T04:44:42;4.00;;;4.00;;
74177;SDS011;62540;48.456;-4.456;2024-01-16T04:47:08;6.00;;;4.00;;
74177;SDS011;62540;48.456;-4.456;2024-01-16T04:49:33;5.00;;;4.00;;
74177;SDS011;62540;48.456;-4.456;2024-01-16T04:51:59;3.25;;;2.25;;
74177;SDS011;62540;48.456;-4.456;2024-01-16T04:54:25;2.00;;;2.00;;
74177;SDS011;62540;48.456;-4.456;2024-01-16T04:56:50;2.00;;;2.00;;
74177;SDS011;62540;48.456;-4.456;2024-01-16T04:59:15;1.00;;;1.00;;
74177;SDS011;62540;48.456;-4.456;2024-01-16T05:01:41;1.00;;;0.00;;
74177;SDS011;62540;48.456;-4.456;2024-01-16T05:04:06;1.00;;;1.00;;
74177;SDS011;62540;48.456;-4.456;2024-01-16T05:06:33;1.00;;;1.00;;
74177;SDS011;62540;48.456;-4.456;2024-01-16T05:08:59;1.00;;;1.00;;
74177;SDS011;62540;48.456;-4.456;2024-01-16T05:11:25;1.00;;;0.50;;
74177;SDS011;62540;48.456;-4.456;2024-01-16T05:13:50;1.00;;;1.00;;
74177;SDS011;62540;48.456;-4.456;2024-01-16T05:16:22;1.50;;;1.50;;
74177;SDS011;62540;48.456;-4.456;2024-01-16T05:18:48;1.25;;;1.25;;
74177;SDS011;62540;48.456;-4.456;2024-01-16T05:21:13;2.00;;;1.00;;
74177;SDS011;62540;48.456;-4.456;2024-01-16T05:23:39;1.00;;;1.00;;
74177;SDS011;62540;48.456;-4.456;2024-01-16T05:26:04;2.00;;;2.00;;
74177;SDS011;62540;48.456;-4.456;2024-01-16T05:28:30;2.00;;;0.75;;
74177;SDS011;62540;48.456;-4.456;2024-01-16T05:30:55;2.00;;;2.00;;
74177;SDS011;62540;48.456;-4.456;2024-01-16T05:33:20;4.00;;;4.00;;
74177;SDS011;62540;48.456;-4.456;2024-01-16T05:35:46;2.00;;;1.00;;
74177;SDS011;62540;48.456;-4.456;2024-01-16T05:38:11;1.00;;;1.00;;
74177;SDS011;62540;48.456;-4.456;2024-01-16T05:40:37;0.00;;;0.00;;
74177;SDS011;62540;48.456;-4.456;2024-01-16T05:43:03;0.00;;;0.00;;
74177;SDS011;62540;48.456;-4.456;2024-01-16T05:45:28;0.00;;;0.00;;
74177;SDS011;62540;48.456;-4.456;2024-01-16T05:47:54;0.00;;;0.00;;
74177;SDS011;62540;48.456;-4.456;2024-01-16T05:50:20;1.50;;;1.25;;
74177;SDS011;62540;48.456;-4.456;2024-01-16T05:52:45;2.00;;;1.00;;
74177;SDS011;62540;48.456;-4.456;2024-01-16T05:55:11;1.00;;;1.00;;
74177;SDS011;62540;48.456;-4.456;2024-01-16T05:57:36;1.50;;;0.75;;
74177;SDS011;62540;48.456;-4.456;2024-01-16T06:00:02;1.00;;;1.00;;
74177;SDS011;62540;48.456;-4.456;2024-01-16T06:02:28;1.25;;;1.25;;
74177;SDS011;62540;48.456;-4.456;2024-01-16T06:04:54;1.25;;;1.00;;
74177;SDS011;62540;48.456;-4.456;2024-01-16T06:07:20;0.75;;;0.75;;
74177;SDS011;62540;48.456;-4.456;2024-01-16T06:09:45;1.00;;;1.00;;
74177;SDS011;62540;48.456;-4.456;2024-01-16T06:12:11;1.00;;;1.00;;
74177;SDS011;62540;48.456;-4.456;2024-01-16T06:14:37;1.75;;;1.75;;
74177;SDS011;62540;48.456;-4.456;2024-01-16T06:17:03;1.75;;;1.00;;
74177;SDS011;62540;48.456;-4.456;2024-01-16T06:19:30;1.00;;;0.00;;
74177;SDS011;62540;48.456;-4.456;2024-01-16T06:21:56;1.00;;;0.25;;
74177;SDS011;62540;48.456;-4.456;2024-01-16T06:24:21;0.00;;;0.00;;
74177;SDS011;62540;48.456;-4.456;2024-01-16T06:26:47;1.00;;;0.00;;
74177;SDS011;62540;48.456;-4.456;2024-01-16T06:29:12;0.50;;;0.00;;
74177;SDS011;62540;48.456;-4.456;2024-01-16T06:31:38;4.00;;;1.00;;
74177;SDS011;62540;48.456;-4.456;2024-01-16T06:34:03;1.00;;;1.00;;
74177;SDS011;62540;48.456;-4.456;2024-01-16T06:36:29;2.50;;;0.00;;
74177;SDS011;62540;48.456;-4.456;2024-01-16T06:38:54;2.00;;;2.00;;
74177;SDS011;62540;48.456;-4.456;2024-01-16T06:41:19;1.00;;;1.00;;
74177;SDS011;62540;48.456;-4.456;2024-01-16T06:43:46;1.75;;;1.00;;
74177;SDS011;62540;48.456;-4.456;2024-01-16T06:46:11;1.00;;;1.00;;
74177;SDS011;62540;48.456;-4.456;2024-01-16T06:48:36;1.00;;;1.00;;
74177;SDS011;62540;48.456;-4.456;2024-01-16T06:51:03;1.00;;;1.00;;
74177;SDS011;62540;48.456;-4.456;2024-01-16T06:53:29;3.00;;;2.50;;
74177;SDS011;62540;48.456;-4.456;2024-01-16T06:55:55;2.75;;;2.25;;
74177;SDS011;62540;48.456;-4.456;2024-01-16T06:58:20;3.00;;;2.00;;
74177;SDS011;62540;48.456;-4.456;2024-01-16T07:00:46;3.00;;;1.00;;
74177;SDS011;62540;48.456;-4.456;2024-01-16T07:03:12;2.00;;;1.00;;
74177;SDS011;62540;48.456;-4.456;2024-01-16T07:05:38;3.00;;;2.00;;
74177;SDS011;62540;48.456;-4.456;2024-01-16T07:08:06;0.00;;;0.00;;
74177;SDS011;62540;48.456;-4.456;2024-01-16T07:10:32;2.50;;;1.75;;
74177;SDS011;62540;48.456;-4.456;2024-01-16T07:12:57;1.00;;;1.00;;
74177;SDS011;62540;48.456;-4.456;2024-01-16T07:15:22;2.75;;;2.75;;
74177;SDS011;62540;48.456;-4.456;2024-01-16T07:17:48;2.00;;;1.00;;
74177;SDS011;62540;48.456;-4.456;2024-01-16T07:20:13;1.75;;;1.75;;
74177;SDS011;62540;48.456;-4.456;2024-01-16T07:22:39;3.50;;;2.00;;
74177;SDS011;62540;48.456;-4.456;2024-01-16T07:25:05;2.25;;;2.00;;
74177;SDS011;62540;48.456;-4.456;2024-01-16T07:27:31;4.00;;;3.50;;
74177;SDS011;62540;48.456;-4.456;2024-01-16T07:29:57;3.00;;;2.75;;
74177;SDS011;62540;48.456;-4.456;2024-01-16T07:32:22;4.00;;;3.00;;
74177;SDS011;62540;48.456;-4.456;2024-01-16T07:34:47;3.00;;;2.00;;
74177;SDS011;62540;48.456;-4.456;2024-01-16T07:37:13;2.75;;;2.00;;
74177;SDS011;62540;48.456;-4.456;2024-01-16T07:39:40;6.00;;;4.00;;
74177;SDS011;62540;48.456;-4.456;2024-01-16T07:42:06;7.00;;;7.00;;
74177;SDS011;62540;48.456;-4.456;2024-01-16T07:44:33;6.00;;;3.75;;
74177;SDS011;62540;48.456;-4.456;2024-01-16T07:46:58;1.00;;;1.00;;
74177;SDS011;62540;48.456;-4.456;2024-01-16T07:49:23;4.00;;;3.00;;
74177;SDS011;62540;48.456;-4.456;2024-01-16T07:51:49;4.00;;;3.25;;
74177;SDS011;62540;48.456;-4.456;2024-01-16T07:54:14;3.75;;;3.00;;
74177;SDS011;62540;48.456;-4.456;2024-01-16T07:56:40;4.75;;;3.00;;
74177;SDS011;62540;48.456;-4.456;2024-01-16T07:59:05;3.25;;;3.25;;
74177;SDS011;62540;48.456;-4.456;2024-01-16T08:01:31;5.50;;;4.00;;
74177;SDS011;62540;48.456;-4.456;2024-01-16T08:03:57;3.75;;;3.75;;
74177;SDS011;62540;48.456;-4.456;2024-01-16T08:06:23;3.75;;;3.75;;
74177;SDS011;62540;48.456;-4.456;2024-01-16T08:08:49;4.00;;;3.75;;
74177;SDS011;62540;48.456;-4.456;2024-01-16T08:11:15;3.25;;;3.00;;
74177;SDS011;62540;48.456;-4.456;2024-01-16T08:13:41;6.00;;;3.75;;
74177;SDS011;62540;48.456;-4.456;2024-01-16T08:16:07;3.00;;;2.75;;
74177;SDS011;62540;48.456;-4.456;2024-01-16T08:18:32;2.00;;;1.00;;
74177;SDS011;62540;48.456;-4.456;2024-01-16T08:20:58;2.00;;;2.00;;
74177;SDS011;62540;48.456;-4.456;2024-01-16T08:23:23;1.00;;;1.00;;
74177;SDS011;62540;48.456;-4.456;2024-01-16T08:25:49;1.75;;;1.75;;
74177;SDS011;62540;48.456;-4.456;2024-01-16T08:28:16;1.00;;;1.00;;
74177;SDS011;62540;48.456;-4.456;2024-01-16T08:30:42;1.00;;;1.00;;
74177;SDS011;62540;48.456;-4.456;2024-01-16T08:33:07;1.50;;;1.00;;
74177;SDS011;62540;48.456;-4.456;2024-01-16T08:35:33;1.00;;;1.00;;
74177;SDS011;62540;48.456;-4.456;2024-01-16T08:37:58;1.00;;;1.00;;
74177;SDS011;62540;48.456;-4.456;2024-01-16T08:40:24;2.00;;;1.00;;
74177;SDS011;62540;48.456;-4.456;2024-01-16T08:42:50;2.00;;;2.00;;
74177;SDS011;62540;48.456;-4.456;2024-01-16T08:45:22;2.00;;;1.25;;
74177;SDS011;62540;48.456;-4.456;2024-01-16T08:47:48;0.25;;;0.25;;
74177;SDS011;62540;48.456;-4.456;2024-01-16T08:50:14;1.25;;;0.00;;
74177;SDS011;62540;48.456;-4.456;2024-01-16T08:52:40;1.00;;;1.00;;
74177;SDS011;62540;48.456;-4.456;2024-01-16T08:55:05;1.25;;;1.00;;
74177;SDS011;62540;48.456;-4.456;2024-01-16T08:57:31;2.00;;;1.75;;
74177;SDS011;62540;48.456;-4.456;2024-01-16T08:59:56;1.00;;;1.00;;
74177;SDS011;62540;48.456;-4.456;2024-01-16T09:02:22;1.00;;;1.00;;
74177;SDS011;62540;48.456;-4.456;2024-01-16T09:04:49;0.00;;;0.00;;
74177;SDS011;62540;48.456;-4.456;2024-01-16T09:07:15;1.50;;;1.50;;
74177;SDS011;62540;48.456;-4.456;2024-01-16T09:09:41;1.00;;;1.00;;
74177;SDS011;62540;48.456;-4.456;2024-01-16T09:12:07;1.25;;;1.00;;
74177;SDS011;62540;48.456;-4.456;2024-01-16T09:14:36;0.75;;;0.75;;
74177;SDS011;62540;48.456;-4.456;2024-01-16T09:17:02;2.00;;;1.00;;
74177;SDS011;62540;48.456;-4.456;2024-01-16T09:19:28;2.25;;;2.00;;
74177;SDS011;62540;48.456;-4.456;2024-01-16T09:21:54;0.75;;;0.75;;
74177;SDS011;62540;48.456;-4.456;2024-01-16T09:24:20;1.00;;;1.00;;
74177;SDS011;62540;48.456;-4.456;2024-01-16T09:26:45;1.75;;;1.75;;
74177;SDS011;62540;48.456;-4.456;2024-01-16T09:29:11;1.00;;;1.00;;
74177;SDS011;62540;48.456;-4.456;2024-01-16T09:31:36;2.00;;;1.00;;
74177;SDS011;62540;48.456;-4.456;2024-01-16T09:34:03;1.25;;;1.25;;
74177;SDS011;62540;48.456;-4.456;2024-01-16T09:36:29;1.75;;;1.75;;
74177;SDS011;62540;48.456;-4.456;2024-01-16T09:38:54;2.00;;;2.00;;
74177;SDS011;62540;48.456;-4.456;2024-01-16T09:41:20;3.00;;;3.00;;
74177;SDS011;62540;48.456;-4.456;2024-01-16T09:43:46;3.50;;;2.75;;
74177;SDS011;62540;48.456;-4.456;2024-01-16T09:46:12;5.50;;;4.00;;
74177;SDS011;62540;48.456;-4.456;2024-01-16T09:48:40;4.00;;;4.00;;
74177;SDS011;62540;48.456;-4.456;2024-01-16T09:51:06;5.00;;;5.00;;
74177;SDS011;62540;48.456;-4.456;2024-01-16T09:53:32;4.00;;;3.50;;
74177;SDS011;62540;48.456;-4.456;2024-01-16T09:55:58;4.00;;;4.00;;
74177;SDS011;62540;48.456;-4.456;2024-01-16T09:58:28;3.00;;;3.00;;
74177;SDS011;62540;48.456;-4.456;2024-01-16T10:00:58;3.50;;;2.00;;
74177;SDS011;62540;48.456;-4.456;2024-01-16T10:03:24;4.25;;;3.00;;
74177;SDS011;62540;48.456;-4.456;2024-01-16T10:05:51;4.50;;;3.00;;
74177;SDS011;62540;48.456;-4.456;2024-01-16T10:08:16;3.75;;;2.00;;
74177;SDS011;62540;48.456;-4.456;2024-01-16T10:10:46;4.25;;;3.00;;
74177;SDS011;62540;48.456;-4.456;2024-01-16T10:13:12;2.75;;;2.75;;
74177;SDS011;62540;48.456;-4.456;2024-01-16T10:15:39;3.00;;;3.00;;
74177;SDS011;62540;48.456;-4.456;2024-01-16T10:18:05;3.00;;;2.00;;
74177;SDS011;62540;48.456;-4.456;2024-01-16T10:20:34;2.75;;;2.50;;
74177;SDS011;62540;48.456;-4.456;2024-01-16T10:23:01;4.00;;;4.00;;
74177;SDS011;62540;48.456;-4.456;2024-01-16T10:25:28;2.75;;;2.00;;
74177;SDS011;62540;48.456;-4.456;2024-01-16T10:28:03;3.00;;;3.00;;
74177;SDS011;62540;48.456;-4.456;2024-01-16T10:30:32;3.00;;;2.25;;
74177;SDS011;62540;48.456;-4.456;2024-01-16T10:33:00;4.25;;;3.25;;
74177;SDS011;62540;48.456;-4.456;2024-01-16T10:35:38;4.00;;;3.00;;
74177;SDS011;62540;48.456;-4.456;2024-01-16T10:38:03;3.00;;;3.00;;
74177;SDS011;62540;48.456;-4.456;2024-01-16T10:40:29;3.25;;;3.25;;
74177;SDS011;62540;48.456;-4.456;2024-01-16T10:42:59;4.00;;;3.25;;
74177;SDS011;62540;48.456;-4.456;2024-01-16T10:45:27;3.50;;;3.50;;
74177;SDS011;62540;48.456;-4.456;2024-01-16T10:50:28;3.50;;;3.00;;
74177;SDS011;62540;48.456;-4.456;2024-01-16T10:52:54;4.25;;;4.25;;
74177;SDS011;62540;48.456;-4.456;2024-01-16T10:55:21;4.00;;;4.00;;
74177;SDS011;62540;48.456;-4.456;2024-01-16T10:57:50;2.25;;;2.00;;
74177;SDS011;62540;48.456;-4.456;2024-01-16T11:00:20;5.50;;;5.00;;
74177;SDS011;62540;48.456;-4.456;2024-01-16T11:03:21;5.00;;;5.00;;
74177;SDS011;62540;48.456;-4.456;2024-01-16T11:05:43;6.50;;;5.00;;
74177;SDS011;62540;48.456;-4.456;2024-01-16T11:08:09;5.25;;;5.00;;
74177;SDS011;62540;48.456;-4.456;2024-01-16T11:10:41;4.00;;;4.00;;
74177;SDS011;62540;48.456;-4.456;2024-01-16T11:13:08;3.50;;;2.00;;
74177;SDS011;62540;48.456;-4.456;2024-01-16T11:15:35;4.50;;;3.00;;
74177;SDS011;62540;48.456;-4.456;2024-01-16T11:18:03;5.75;;;5.00;;
74177;SDS011;62540;48.456;-4.456;2024-01-16T11:20:30;8.00;;;7.00;;
74177;SDS011;62540;48.456;-4.456;2024-01-16T11:22:57;9.25;;;8.00;;
74177;SDS011;62540;48.456;-4.456;2024-01-16T11:25:32;12.50;;;10.75;;
74177;SDS011;62540;48.456;-4.456;2024-01-16T11:30:56;6.75;;;6.75;;
74177;SDS011;62540;48.456;-4.456;2024-01-16T11:35:56;6.00;;;4.50;;
74177;SDS011;62540;48.456;-4.456;2024-01-16T11:38:23;7.25;;;6.25;;
74177;SDS011;62540;48.456;-4.456;2024-01-16T11:40:51;7.00;;;6.00;;
74177;SDS011;62540;48.456;-4.456;2024-01-16T11:45:59;5.50;;;5.50;;
74177;SDS011;62540;48.456;-4.456;2024-01-16T11:48:25;6.00;;;6.00;;
74177;SDS011;62540;48.456;-4.456;2024-01-16T11:50:51;4.25;;;4.25;;
74177;SDS011;62540;48.456;-4.456;2024-01-16T12:01:52;4.50;;;4.25;;
74177;SDS011;62540;48.456;-4.456;2024-01-16T12:04:22;7.00;;;5.50;;
74177;SDS011;62540;48.456;-4.456;2024-01-16T12:06:57;5.75;;;3.25;;
74177;SDS011;62540;48.456;-4.456;2024-01-16T12:09:25;7.00;;;5.00;;
74177;SDS011;62540;48.456;-4.456;2024-01-16T12:12:01;4.00;;;4.00;;
74177;SDS011;62540;48.456;-4.456;2024-01-16T12:14:27;5.00;;;4.00;;
74177;SDS011;62540;48.456;-4.456;2024-01-16T12:17:12;4.75;;;4.75;;
74177;SDS011;62540;48.456;-4.456;2024-01-16T12:19:38;5.75;;;5.00;;
74177;SDS011;62540;48.456;-4.456;2024-01-16T12:22:10;6.00;;;5.50;;
74177;SDS011;62540;48.456;-4.456;2024-01-16T12:24:38;6.00;;;5.50;;
74177;SDS011;62540;48.456;-4.456;2024-01-16T12:27:04;5.75;;;5.75;;
74177;SDS011;62540;48.456;-4.456;2024-01-16T12:29:30;6.25;;;5.75;;
74177;SDS011;62540;48.456;-4.456;2024-01-16T12:32:06;5.00;;;4.50;;
74177;SDS011;62540;48.456;-4.456;2024-01-16T12:34:32;5.00;;;5.00;;
74177;SDS011;62540;48.456;-4.456;2024-01-16T12:37:04;4.50;;;4.50;;
74177;SDS011;62540;48.456;-4.456;2024-01-16T12:39:31;6.50;;;5.00;;
74177;SDS011;62540;48.456;-4.456;2024-01-16T12:41:57;6.25;;;6.25;;
74177;SDS011;62540;48.456;-4.456;2024-01-16T12:44:27;5.50;;;4.50;;
74177;SDS011;62540;48.456;-4.456;2024-01-16T12:46:56;6.00;;;6.00;;
74177;SDS011;62540;48.456;-4.456;2024-01-16T12:49:22;7.25;;;6.75;;
74177;SDS011;62540;48.456;-4.456;2024-01-16T12:51:49;7.75;;;6.75;;
74177;SDS011;62540;48.456;-4.456;2024-01-16T12:54:15;6.25;;;6.25;;
74177;SDS011;62540;48.456;-4.456;2024-01-16T12:56:42;7.25;;;6.00;;
74177;SDS011;62540;48.456;-4.456;2024-01-16T12:59:11;6.25;;;6.25;;
74177;SDS011;62540;48.456;-4.456;2024-01-16T13:01:41;5.25;;;4.00;;
74177;SDS011;62540;48.456;-4.456;2024-01-16T13:04:09;6.00;;;4.50;;
74177;SDS011;62540;48.456;-4.456;2024-01-16T13:06:35;6.00;;;5.00;;
74177;SDS011;62540;48.456;-4.456;2024-01-16T13:09:07;7.50;;;6.00;;
74177;SDS011;62540;48.456;-4.456;2024-01-16T13:11:46;7.00;;;6.50;;
74177;SDS011;62540;48.456;-4.456;2024-01-16T13:14:12;5.25;;;5.25;;
74177;SDS011;62540;48.456;-4.456;2024-01-16T13:16:37;7.00;;;6.75;;
74177;SDS011;62540;48.456;-4.456;2024-01-16T13:19:03;7.00;;;6.50;;
74177;SDS011;62540;48.456;-4.456;2024-01-16T13:21:30;6.25;;;6.25;;
74177;SDS011;62540;48.456;-4.456;2024-01-16T13:23:55;9.00;;;7.00;;
74177;SDS011;62540;48.456;-4.456;2024-01-16T13:26:21;7.50;;;6.50;;
74177;SDS011;62540;48.456;-4.456;2024-01-16T13:28:46;8.75;;;7.75;;
74177;SDS011;62540;48.456;-4.456;2024-01-16T13:31:13;9.50;;;8.50;;
74177;SDS011;62540;48.456;-4.456;2024-01-16T13:33:38;6.25;;;6.25;;
74177;SDS011;62540;48.456;-4.456;2024-01-16T13:36:03;7.00;;;6.00;;
74177;SDS011;62540;48.456;-4.456;2024-01-16T13:38:30;7.00;;;7.00;;
74177;SDS011;62540;48.456;-4.456;2024-01-16T13:40:55;8.25;;;7.00;;
74177;SDS011;62540;48.456;-4.456;2024-01-16T13:43:21;6.00;;;6.00;;
74177;SDS011;62540;48.456;-4.456;2024-01-16T13:45:46;5.00;;;5.00;;
74177;SDS011;62540;48.456;-4.456;2024-01-16T13:48:14;8.00;;;6.25;;
74177;SDS011;62540;48.456;-4.456;2024-01-16T13:50:40;7.50;;;6.50;;
74177;SDS011;62540;48.456;-4.456;2024-01-16T13:53:05;8.25;;;7.50;;
74177;SDS011;62540;48.456;-4.456;2024-01-16T13:55:32;9.00;;;9.00;;
74177;SDS011;62540;48.456;-4.456;2024-01-16T13:57:57;7.75;;;5.50;;
74177;SDS011;62540;48.456;-4.456;2024-01-16T14:00:23;7.50;;;7.25;;
74177;SDS011;62540;48.456;-4.456;2024-01-16T14:02:49;9.50;;;8.75;;
74177;SDS011;62540;48.456;-4.456;2024-01-16T14:05:15;9.00;;;6.00;;
74177;SDS011;62540;48.456;-4.456;2024-01-16T14:07:43;6.00;;;6.00;;
74177;SDS011;62540;48.456;-4.456;2024-01-16T14:10:11;8.00;;;6.75;;
74177;SDS011;62540;48.456;-4.456;2024-01-16T14:12:41;8.50;;;8.50;;
74177;SDS011;62540;48.456;-4.456;2024-01-16T14:15:08;9.25;;;9.00;;
74177;SDS011;62540;48.456;-4.456;2024-01-16T14:17:41;9.50;;;8.50;;
74177;SDS011;62540;48.456;-4.456;2024-01-16T14:20:10;6.75;;;5.25;;
74177;SDS011;62540;48.456;-4.456;2024-01-16T14:22:36;8.75;;;7.00;;
74177;SDS011;62540;48.456;-4.456;2024-01-16T14:25:07;7.25;;;6.00;;
74177;SDS011;62540;48.456;-4.456;2024-01-16T14:27:40;8.50;;;7.00;;
74177;SDS011;62540;48.456;-4.456;2024-01-16T14:30:07;5.00;;;4.50;;
74177;SDS011;62540;48.456;-4.456;2024-01-16T14:32:36;9.25;;;8.75;;
74177;SDS011;62540;48.456;-4.456;2024-01-16T14:35:03;10.00;;;9.00;;
74177;SDS011;62540;48.456;-4.456;2024-01-16T14:37:30;11.00;;;10.50;;
74177;SDS011;62540;48.456;-4.456;2024-01-16T14:39:57;9.75;;;9.00;;
74177;SDS011;62540;48.456;-4.456;2024-01-16T14:42:26;7.25;;;6.75;;
74177;SDS011;62540;48.456;-4.456;2024-01-16T14:44:52;8.25;;;8.25;;
74177;SDS011;62540;48.456;-4.456;2024-01-16T14:47:17;11.00;;;9.25;;